sensor_id;sensor_type;location;lat;lon;timestamp;P1;durP1;ratioP1;P2;durP2;ratioP2
28802;SDS011;15949;55.656;37.422;2024-03-23T00:54:38;59.67;;;33.88;;
28802;SDS011;15949;55.656;37.422;2024-03-23T00:59:44;63.63;;;34.58;;
28802;SDS011;15949;55.656;37.422;2024-03-23T01:04:50;59.70;;;34.38;;
28802;SDS011;15949;55.656;37.422;2024-03-23T01:09:56;60.55;;;34.33;;
28802;SDS011;15949;55.656;37.422;2024-03-23T01:15:02;59.28;;;34.63;;
28802;SDS011;15949;55.656;37.422;2024-03-23T01:20:08;57.22;;;33.30;;
28802;SDS011;15949;55.656;37.422;2024-03-23T01:25:14;61.80;;;33.97;;
28802;SDS011;15949;55.656;37.422;2024-03-23T01:30:20;61.85;;;34.35;;
28802;SDS011;15949;55.656;37.422;2024-03-23T01:35:25;62.15;;;34.70;;
28802;SDS011;15949;55.656;37.422;2024-03-23T01:40:31;62.30;;;35.80;;
28802;SDS011;15949;55.656;37.422;2024-03-23T01:45:37;65.03;;;35.97;;
28802;SDS011;15949;55.656;37.422;2024-03-23T01:50:43;62.15;;;36.08;;
28802;SDS011;15949;55.656;37.422;2024-03-23T01:55:49;67.55;;;37.25;;
28802;SDS011;15949;55.656;37.422;2024-03-23T02:00:59;71.05;;;37.33;;
28802;SDS011;15949;55.656;37.422;2024-03-23T02:06:05;66.35;;;36.53;;
28802;SDS011;15949;55.656;37.422;2024-03-23T02:11:12;67.97;;;37.97;;
28802;SDS011;15949;55.656;37.422;2024-03-23T02:16:18;65.97;;;36.67;;
28802;SDS011;15949;55.656;37.422;2024-03-23T02:21:24;68.65;;;37.67;;
28802;SDS011;15949;55.656;37.422;2024-03-23T02:26:29;71.38;;;37.72;;
28802;SDS011;15949;55.656;37.422;2024-03-23T02:31:35;71.95;;;38.92;;
28802;SDS011;15949;55.656;37.422;2024-03-23T02:36:41;61.90;;;36.15;;
28802;SDS011;15949;55.656;37.422;2024-03-23T02:41:47;64.43;;;35.95;;
28802;SDS011;15949;55.656;37.422;2024-03-23T02:46:53;66.68;;;36.90;;
28802;SDS011;15949;55.656;37.422;2024-03-23T02:51:59;64.20;;;36.60;;
28802;SDS011;15949;55.656;37.422;2024-03-23T02:57:04;70.85;;;37.08;;
28802;SDS011;15949;55.656;37.422;2024-03-23T03:02:11;66.22;;;37.17;;
28802;SDS011;15949;55.656;37.422;2024-03-23T03:07:17;66.57;;;36.15;;
28802;SDS011;15949;55.656;37.422;2024-03-23T03:12:22;61.53;;;35.53;;
28802;SDS011;15949;55.656;37.422;2024-03-23T03:17:28;64.70;;;36.47;;
28802;SDS011;15949;55.656;37.422;2024-03-23T03:22:34;64.90;;;35.67;;
28802;SDS011;15949;55.656;37.422;2024-03-23T03:27:40;64.00;;;35.67;;
28802;SDS011;15949;55.656;37.422;2024-03-23T03:32:45;60.50;;;34.65;;
28802;SDS011;15949;55.656;37.422;2024-03-23T03:37:51;64.53;;;35.97;;
28802;SDS011;15949;55.656;37.422;2024-03-23T03:42:57;62.50;;;35.17;;
28802;SDS011;15949;55.656;37.422;2024-03-23T03:48:03;63.20;;;35.13;;
28802;SDS011;15949;55.656;37.422;2024-03-23T03:53:09;62.05;;;33.95;;
28802;SDS011;15949;55.656;37.422;2024-03-23T03:58:14;63.40;;;33.90;;
28802;SDS011;15949;55.656;37.422;2024-03-23T04:03:20;63.95;;;33.10;;
28802;SDS011;15949;55.656;37.422;2024-03-23T04:08:26;61.95;;;34.72;;
28802;SDS011;15949;55.656;37.422;2024-03-23T04:13:32;62.60;;;34.53;;
28802;SDS011;15949;55.656;37.422;2024-03-23T04:18:39;54.35;;;33.63;;
28802;SDS011;15949;55.656;37.422;2024-03-23T04:23:45;58.67;;;34.33;;
28802;SDS011;15949;55.656;37.422;2024-03-23T04:28:51;59.50;;;34.40;;
28802;SDS011;15949;55.656;37.422;2024-03-23T04:33:57;58.33;;;33.78;;
28802;SDS011;15949;55.656;37.422;2024-03-23T04:39:03;52.45;;;32.92;;
28802;SDS011;15949;55.656;37.422;2024-03-23T04:44:08;55.88;;;32.58;;
28802;SDS011;15949;55.656;37.422;2024-03-23T04:49:15;56.45;;;33.28;;
28802;SDS011;15949;55.656;37.422;2024-03-23T04:54:21;58.38;;;32.10;;
28802;SDS011;15949;55.656;37.422;2024-03-23T04:59:26;52.42;;;30.42;;
28802;SDS011;15949;55.656;37.422;2024-03-23T05:04:32;50.15;;;28.08;;
28802;SDS011;15949;55.656;37.422;2024-03-23T05:09:40;50.33;;;29.90;;
28802;SDS011;15949;55.656;37.422;2024-03-23T05:14:46;48.33;;;29.80;;
28802;SDS011;15949;55.656;37.422;2024-03-23T05:19:52;48.47;;;29.13;;
28802;SDS011;15949;55.656;37.422;2024-03-23T05:24:58;53.53;;;29.95;;
28802;SDS011;15949;55.656;37.422;2024-03-23T05:30:04;52.83;;;30.63;;
28802;SDS011;15949;55.656;37.422;2024-03-23T05:35:11;47.75;;;28.80;;
28802;SDS011;15949;55.656;37.422;2024-03-23T05:40:17;49.25;;;30.33;;
28802;SDS011;15949;55.656;37.422;2024-03-23T05:45:23;47.15;;;29.17;;
28802;SDS011;15949;55.656;37.422;2024-03-23T05:50:29;53.30;;;32.13;;
28802;SDS011;15949;55.656;37.422;2024-03-23T05:55:34;48.00;;;29.95;;
28802;SDS011;15949;55.656;37.422;2024-03-23T06:00:40;50.17;;;30.33;;
28802;SDS011;15949;55.656;37.422;2024-03-23T06:05:47;47.03;;;29.15;;
28802;SDS011;15949;55.656;37.422;2024-03-23T06:10:53;46.58;;;29.95;;
28802;SDS011;15949;55.656;37.422;2024-03-23T06:15:59;44.70;;;28.60;;
28802;SDS011;15949;55.656;37.422;2024-03-23T06:21:12;44.45;;;27.55;;
28802;SDS011;15949;55.656;37.422;2024-03-23T06:26:19;40.30;;;27.35;;
28802;SDS011;15949;55.656;37.422;2024-03-23T06:31:25;41.67;;;26.77;;
28802;SDS011;15949;55.656;37.422;2024-03-23T06:36:31;44.05;;;26.35;;
28802;SDS011;15949;55.656;37.422;2024-03-23T06:41:38;37.88;;;25.10;;
28802;SDS011;15949;55.656;37.422;2024-03-23T06:46:43;36.90;;;24.40;;
28802;SDS011;15949;55.656;37.422;2024-03-23T06:51:49;35.90;;;23.73;;
28802;SDS011;15949;55.656;37.422;2024-03-23T06:56:55;34.42;;;23.73;;
28802;SDS011;15949;55.656;37.422;2024-03-23T07:02:01;34.45;;;22.98;;
28802;SDS011;15949;55.656;37.422;2024-03-23T07:07:07;35.80;;;23.92;;
28802;SDS011;15949;55.656;37.422;2024-03-23T07:12:13;38.70;;;23.95;;
28802;SDS011;15949;55.656;37.422;2024-03-23T07:17:19;33.05;;;21.83;;
28802;SDS011;15949;55.656;37.422;2024-03-23T07:22:25;33.03;;;21.42;;
28802;SDS011;15949;55.656;37.422;2024-03-23T07:27:30;30.48;;;21.83;;
28802;SDS011;15949;55.656;37.422;2024-03-23T07:32:36;30.05;;;20.70;;
28802;SDS011;15949;55.656;37.422;2024-03-23T07:37:43;28.85;;;19.13;;
28802;SDS011;15949;55.656;37.422;2024-03-23T07:42:49;31.88;;;21.20;;
28802;SDS011;15949;55.656;37.422;2024-03-23T07:47:55;31.65;;;21.85;;
28802;SDS011;15949;55.656;37.422;2024-03-23T07:53:00;31.52;;;20.30;;
28802;SDS011;15949;55.656;37.422;2024-03-23T07:58:06;28.02;;;19.95;;
28802;SDS011;15949;55.656;37.422;2024-03-23T08:03:12;31.25;;;20.00;;
28802;SDS011;15949;55.656;37.422;2024-03-23T08:08:18;27.30;;;20.23;;
28802;SDS011;15949;55.656;37.422;2024-03-23T08:13:24;26.92;;;18.73;;
28802;SDS011;15949;55.656;37.422;2024-03-23T08:18:30;26.05;;;18.60;;
28802;SDS011;15949;55.656;37.422;2024-03-23T08:23:36;22.25;;;16.10;;
28802;SDS011;15949;55.656;37.422;2024-03-23T08:28:43;25.45;;;16.70;;
28802;SDS011;15949;55.656;37.422;2024-03-23T08:33:49;26.00;;;17.75;;
28802;SDS011;15949;55.656;37.422;2024-03-23T08:38:55;21.63;;;16.80;;
28802;SDS011;15949;55.656;37.422;2024-03-23T08:44:01;24.17;;;16.88;;
28802;SDS011;15949;55.656;37.422;2024-03-23T08:49:06;22.52;;;16.02;;
28802;SDS011;15949;55.656;37.422;2024-03-23T08:54:12;22.60;;;16.55;;
28802;SDS011;15949;55.656;37.422;2024-03-23T08:59:19;22.85;;;17.48;;
28802;SDS011;15949;55.656;37.422;2024-03-23T09:04:25;24.15;;;16.52;;
28802;SDS011;15949;55.656;37.422;2024-03-23T09:09:32;22.88;;;16.48;;
28802;SDS011;15949;55.656;37.422;2024-03-23T09:14:37;22.52;;;16.67;;
28802;SDS011;15949;55.656;37.422;2024-03-23T09:19:43;25.30;;;16.83;;
28802;SDS011;15949;55.656;37.422;2024-03-23T09:24:49;23.23;;;15.55;;
28802;SDS011;15949;55.656;37.422;2024-03-23T09:29:55;22.45;;;15.93;;
28802;SDS011;15949;55.656;37.422;2024-03-23T09:35:01;20.90;;;15.45;;
28802;SDS011;15949;55.656;37.422;2024-03-23T09:40:10;19.73;;;16.02;;
28802;SDS011;15949;55.656;37.422;2024-03-23T09:45:17;21.52;;;16.85;;
28802;SDS011;15949;55.656;37.422;2024-03-23T09:50:27;22.75;;;16.65;;
28802;SDS011;15949;55.656;37.422;2024-03-23T09:55:33;22.48;;;16.77;;
28802;SDS011;15949;55.656;37.422;2024-03-23T10:00:43;23.73;;;15.40;;
28802;SDS011;15949;55.656;37.422;2024-03-23T10:06:11;24.88;;;16.60;;
28802;SDS011;15949;55.656;37.422;2024-03-23T10:11:16;21.55;;;15.70;;
28802;SDS011;15949;55.656;37.422;2024-03-23T10:16:23;21.58;;;15.50;;
28802;SDS011;15949;55.656;37.422;2024-03-23T10:21:29;22.67;;;16.13;;
28802;SDS011;15949;55.656;37.422;2024-03-23T10:26:35;22.80;;;16.83;;
28802;SDS011;15949;55.656;37.422;2024-03-23T10:31:41;22.52;;;17.02;;
28802;SDS011;15949;55.656;37.422;2024-03-23T10:36:47;23.92;;;16.80;;
28802;SDS011;15949;55.656;37.422;2024-03-23T10:41:54;24.17;;;16.65;;
28802;SDS011;15949;55.656;37.422;2024-03-23T10:47:02;23.17;;;17.45;;
28802;SDS011;15949;55.656;37.422;2024-03-23T10:52:10;23.63;;;18.10;;
28802;SDS011;15949;55.656;37.422;2024-03-23T10:57:17;25.25;;;17.95;;
28802;SDS011;15949;55.656;37.422;2024-03-23T11:02:25;25.20;;;17.90;;
28802;SDS011;15949;55.656;37.422;2024-03-23T11:07:33;25.42;;;17.52;;
28802;SDS011;15949;55.656;37.422;2024-03-23T11:12:38;26.27;;;18.50;;
28802;SDS011;15949;55.656;37.422;2024-03-23T11:18:03;30.95;;;20.10;;
28802;SDS011;15949;55.656;37.422;2024-03-23T11:23:16;26.42;;;18.65;;
28802;SDS011;15949;55.656;37.422;2024-03-23T11:28:33;29.52;;;18.98;;
28802;SDS011;15949;55.656;37.422;2024-03-23T11:33:38;27.95;;;19.38;;
28802;SDS011;15949;55.656;37.422;2024-03-23T11:38:44;28.52;;;20.88;;
28802;SDS011;15949;55.656;37.422;2024-03-23T11:43:50;30.15;;;21.08;;
28802;SDS011;15949;55.656;37.422;2024-03-23T11:48:56;31.08;;;21.65;;
28802;SDS011;15949;55.656;37.422;2024-03-23T11:54:08;30.88;;;22.33;;
28802;SDS011;15949;55.656;37.422;2024-03-23T11:59:29;33.13;;;22.60;;
28802;SDS011;15949;55.656;37.422;2024-03-23T12:04:37;38.08;;;24.67;;
28802;SDS011;15949;55.656;37.422;2024-03-23T12:09:43;38.60;;;26.88;;
28802;SDS011;15949;55.656;37.422;2024-03-23T12:20:10;37.53;;;25.10;;
28802;SDS011;15949;55.656;37.422;2024-03-23T12:25:16;41.90;;;26.10;;
28802;SDS011;15949;55.656;37.422;2024-03-23T12:30:22;39.08;;;26.10;;
28802;SDS011;15949;55.656;37.422;2024-03-23T12:35:27;41.67;;;27.08;;
28802;SDS011;15949;55.656;37.422;2024-03-23T12:40:33;44.47;;;28.48;;
28802;SDS011;15949;55.656;37.422;2024-03-23T12:45:39;49.95;;;31.48;;
28802;SDS011;15949;55.656;37.422;2024-03-23T12:50:45;48.10;;;29.02;;
28802;SDS011;15949;55.656;37.422;2024-03-23T12:55:51;40.65;;;28.40;;
28802;SDS011;15949;55.656;37.422;2024-03-23T13:00:58;46.35;;;28.08;;
28802;SDS011;15949;55.656;37.422;2024-03-23T13:06:04;48.10;;;29.10;;
28802;SDS011;15949;55.656;37.422;2024-03-23T13:11:13;45.45;;;28.52;;
28802;SDS011;15949;55.656;37.422;2024-03-23T13:16:19;44.28;;;27.75;;
28802;SDS011;15949;55.656;37.422;2024-03-23T13:21:25;45.05;;;29.55;;
28802;SDS011;15949;55.656;37.422;2024-03-23T13:26:30;40.20;;;26.13;;
28802;SDS011;15949;55.656;37.422;2024-03-23T13:31:36;45.67;;;28.88;;
28802;SDS011;15949;55.656;37.422;2024-03-23T13:36:45;37.15;;;24.98;;
28802;SDS011;15949;55.656;37.422;2024-03-23T13:41:52;37.20;;;23.50;;
28802;SDS011;15949;55.656;37.422;2024-03-23T13:46:57;35.08;;;22.52;;
28802;SDS011;15949;55.656;37.422;2024-03-23T13:52:03;34.20;;;21.73;;
28802;SDS011;15949;55.656;37.422;2024-03-23T13:57:09;34.22;;;21.50;;
28802;SDS011;15949;55.656;37.422;2024-03-23T14:02:16;35.42;;;21.60;;
28802;SDS011;15949;55.656;37.422;2024-03-23T14:07:21;32.00;;;23.00;;
28802;SDS011;15949;55.656;37.422;2024-03-23T14:12:27;33.40;;;22.27;;
28802;SDS011;15949;55.656;37.422;2024-03-23T14:17:33;30.65;;;21.80;;
28802;SDS011;15949;55.656;37.422;2024-03-23T14:22:39;30.08;;;22.20;;
28802;SDS011;15949;55.656;37.422;2024-03-23T14:27:46;31.15;;;20.10;;
28802;SDS011;15949;55.656;37.422;2024-03-23T14:32:52;34.50;;;21.90;;
28802;SDS011;15949;55.656;37.422;2024-03-23T14:37:58;29.58;;;21.35;;
28802;SDS011;15949;55.656;37.422;2024-03-23T14:43:04;31.88;;;21.40;;
28802;SDS011;15949;55.656;37.422;2024-03-23T14:48:10;32.92;;;20.42;;
28802;SDS011;15949;55.656;37.422;2024-03-23T14:53:16;27.60;;;19.73;;
28802;SDS011;15949;55.656;37.422;2024-03-23T14:58:22;30.35;;;20.83;;
28802;SDS011;15949;55.656;37.422;2024-03-23T15:03:29;27.60;;;20.08;;
28802;SDS011;15949;55.656;37.422;2024-03-23T15:08:35;32.33;;;19.90;;
28802;SDS011;15949;55.656;37.422;2024-03-23T15:13:45;27.70;;;19.00;;
28802;SDS011;15949;55.656;37.422;2024-03-23T15:18:55;25.58;;;18.20;;
28802;SDS011;15949;55.656;37.422;2024-03-23T15:24:01;28.10;;;19.35;;
28802;SDS011;15949;55.656;37.422;2024-03-23T15:29:07;26.90;;;19.23;;
28802;SDS011;15949;55.656;37.422;2024-03-23T15:34:18;28.40;;;19.80;;
28802;SDS011;15949;55.656;37.422;2024-03-23T15:39:27;27.73;;;18.98;;
28802;SDS011;15949;55.656;37.422;2024-03-23T15:44:34;27.92;;;19.35;;
28802;SDS011;15949;55.656;37.422;2024-03-23T15:49:40;27.95;;;19.00;;
28802;SDS011;15949;55.656;37.422;2024-03-23T15:54:46;24.55;;;18.55;;
28802;SDS011;15949;55.656;37.422;2024-03-23T15:59:51;25.50;;;17.60;;
28802;SDS011;15949;55.656;37.422;2024-03-23T16:04:57;25.52;;;17.20;;
28802;SDS011;15949;55.656;37.422;2024-03-23T16:15:32;24.33;;;17.35;;
28802;SDS011;15949;55.656;37.422;2024-03-23T16:20:39;25.40;;;18.40;;
28802;SDS011;15949;55.656;37.422;2024-03-23T16:26:03;24.13;;;17.30;;
28802;SDS011;15949;55.656;37.422;2024-03-23T16:31:10;25.25;;;17.80;;
28802;SDS011;15949;55.656;37.422;2024-03-23T16:36:16;25.95;;;18.50;;
28802;SDS011;15949;55.656;37.422;2024-03-23T16:41:22;25.20;;;19.20;;
28802;SDS011;15949;55.656;37.422;2024-03-23T16:46:28;28.45;;;20.33;;
28802;SDS011;15949;55.656;37.422;2024-03-23T16:51:34;29.15;;;21.20;;
28802;SDS011;15949;55.656;37.422;2024-03-23T16:56:40;28.02;;;21.23;;
28802;SDS011;15949;55.656;37.422;2024-03-23T17:01:46;30.42;;;21.15;;
28802;SDS011;15949;55.656;37.422;2024-03-23T17:06:51;25.38;;;18.95;;
28802;SDS011;15949;55.656;37.422;2024-03-23T17:11:57;24.95;;;18.25;;
28802;SDS011;15949;55.656;37.422;2024-03-23T17:17:04;26.90;;;18.90;;
28802;SDS011;15949;55.656;37.422;2024-03-23T17:22:10;29.33;;;20.95;;
28802;SDS011;15949;55.656;37.422;2024-03-23T17:27:18;31.17;;;20.77;;
28802;SDS011;15949;55.656;37.422;2024-03-23T17:32:23;25.70;;;18.50;;
28802;SDS011;15949;55.656;37.422;2024-03-23T17:37:29;23.17;;;16.70;;
28802;SDS011;15949;55.656;37.422;2024-03-23T17:42:35;24.38;;;18.02;;
28802;SDS011;15949;55.656;37.422;2024-03-23T17:47:42;26.75;;;18.42;;
28802;SDS011;15949;55.656;37.422;2024-03-23T17:53:06;28.08;;;18.60;;
28802;SDS011;15949;55.656;37.422;2024-03-23T17:58:12;31.05;;;21.05;;
28802;SDS011;15949;55.656;37.422;2024-03-23T18:03:18;31.13;;;20.45;;
28802;SDS011;15949;55.656;37.422;2024-03-23T18:08:24;27.23;;;19.00;;
28802;SDS011;15949;55.656;37.422;2024-03-23T18:13:31;29.70;;;20.60;;
28802;SDS011;15949;55.656;37.422;2024-03-23T18:18:37;27.10;;;17.52;;
28802;SDS011;15949;55.656;37.422;2024-03-23T18:23:45;33.22;;;19.92;;
28802;SDS011;15949;55.656;37.422;2024-03-23T18:28:52;33.75;;;18.80;;
28802;SDS011;15949;55.656;37.422;2024-03-23T18:33:58;25.65;;;17.05;;
28802;SDS011;15949;55.656;37.422;2024-03-23T18:39:06;25.40;;;16.83;;
28802;SDS011;15949;55.656;37.422;2024-03-23T18:44:12;29.20;;;18.73;;
28802;SDS011;15949;55.656;37.422;2024-03-23T18:49:18;31.98;;;21.08;;
28802;SDS011;15949;55.656;37.422;2024-03-23T18:54:24;25.77;;;17.20;;
28802;SDS011;15949;55.656;37.422;2024-03-23T18:59:30;27.90;;;17.27;;
28802;SDS011;15949;55.656;37.422;2024-03-23T19:04:36;25.13;;;16.13;;
28802;SDS011;15949;55.656;37.422;2024-03-23T19:09:41;25.75;;;15.77;;
28802;SDS011;15949;55.656;37.422;2024-03-23T19:14:47;27.30;;;17.60;;
28802;SDS011;15949;55.656;37.422;2024-03-23T19:19:55;22.25;;;15.00;;
28802;SDS011;15949;55.656;37.422;2024-03-23T19:25:01;26.25;;;15.77;;
28802;SDS011;15949;55.656;37.422;2024-03-23T19:30:10;23.63;;;14.57;;
28802;SDS011;15949;55.656;37.422;2024-03-23T19:35:17;25.23;;;14.70;;
28802;SDS011;15949;55.656;37.422;2024-03-23T19:40:23;25.98;;;14.48;;
28802;SDS011;15949;55.656;37.422;2024-03-23T19:45:29;26.88;;;15.45;;
28802;SDS011;15949;55.656;37.422;2024-03-23T19:50:35;29.45;;;16.83;;
28802;SDS011;15949;55.656;37.422;2024-03-23T19:55:41;31.60;;;17.88;;
28802;SDS011;15949;55.656;37.422;2024-03-23T20:00:47;32.67;;;18.98;;
28802;SDS011;15949;55.656;37.422;2024-03-23T20:06:01;31.70;;;17.58;;
28802;SDS011;15949;55.656;37.422;2024-03-23T20:11:07;36.72;;;21.20;;
28802;SDS011;15949;55.656;37.422;2024-03-23T20:16:14;33.50;;;21.33;;
28802;SDS011;15949;55.656;37.422;2024-03-23T20:21:19;37.97;;;21.63;;
28802;SDS011;15949;55.656;37.422;2024-03-23T20:26:25;48.47;;;26.10;;
28802;SDS011;15949;55.656;37.422;2024-03-23T20:31:31;45.80;;;25.70;;
28802;SDS011;15949;55.656;37.422;2024-03-23T20:36:38;53.13;;;25.83;;
28802;SDS011;15949;55.656;37.422;2024-03-23T20:41:44;57.03;;;27.48;;
28802;SDS011;15949;55.656;37.422;2024-03-23T20:46:49;72.25;;;30.00;;
28802;SDS011;15949;55.656;37.422;2024-03-23T20:51:56;91.55;;;28.15;;
28802;SDS011;15949;55.656;37.422;2024-03-23T20:57:02;74.60;;;29.15;;
28802;SDS011;15949;55.656;37.422;2024-03-23T21:02:08;89.15;;;30.23;;
28802;SDS011;15949;55.656;37.422;2024-03-23T21:07:14;83.05;;;29.95;;
28802;SDS011;15949;55.656;37.422;2024-03-23T21:12:20;78.00;;;29.88;;
28802;SDS011;15949;55.656;37.422;2024-03-23T21:17:26;59.72;;;28.50;;
28802;SDS011;15949;55.656;37.422;2024-03-23T21:22:32;68.70;;;28.45;;
28802;SDS011;15949;55.656;37.422;2024-03-23T21:27:41;66.43;;;28.45;;
28802;SDS011;15949;55.656;37.422;2024-03-23T21:32:47;61.13;;;28.00;;
28802;SDS011;15949;55.656;37.422;2024-03-23T21:37:53;60.33;;;27.77;;
28802;SDS011;15949;55.656;37.422;2024-03-23T21:42:59;56.00;;;26.30;;
28802;SDS011;15949;55.656;37.422;2024-03-23T21:48:05;53.85;;;26.90;;
28802;SDS011;15949;55.656;37.422;2024-03-23T21:53:11;57.05;;;27.42;;
28802;SDS011;15949;55.656;37.422;2024-03-23T21:58:17;50.00;;;26.13;;
28802;SDS011;15949;55.656;37.422;2024-03-23T22:03:24;53.55;;;27.85;;
28802;SDS011;15949;55.656;37.422;2024-03-23T22:08:30;53.47;;;27.55;;
28802;SDS011;15949;55.656;37.422;2024-03-23T22:13:36;60.88;;;30.48;;
28802;SDS011;15949;55.656;37.422;2024-03-23T22:18:43;65.80;;;31.02;;
28802;SDS011;15949;55.656;37.422;2024-03-23T22:23:49;61.85;;;29.73;;
28802;SDS011;15949;55.656;37.422;2024-03-23T22:28:55;64.07;;;31.13;;
28802;SDS011;15949;55.656;37.422;2024-03-23T22:34:01;59.28;;;29.17;;
28802;SDS011;15949;55.656;37.422;2024-03-23T22:39:07;61.78;;;28.50;;
28802;SDS011;15949;55.656;37.422;2024-03-23T22:44:13;55.55;;;29.48;;
28802;SDS011;15949;55.656;37.422;2024-03-23T22:49:20;64.78;;;28.42;;
28802;SDS011;15949;55.656;37.422;2024-03-23T22:54:26;63.78;;;27.70;;
28802;SDS011;15949;55.656;37.422;2024-03-23T22:59:32;67.28;;;27.85;;
28802;SDS011;15949;55.656;37.422;2024-03-23T23:04:38;64.78;;;27.48;;
28802;SDS011;15949;55.656;37.422;2024-03-23T23:09:44;64.30;;;27.63;;
28802;SDS011;15949;55.656;37.422;2024-03-23T23:14:50;60.35;;;27.20;;
28802;SDS011;15949;55.656;37.422;2024-03-23T23:19:55;73.68;;;28.90;;
28802;SDS011;15949;55.656;37.422;2024-03-23T23:25:01;79.32;;;28.63;;
28802;SDS011;15949;55.656;37.422;2024-03-23T23:30:07;73.07;;;30.27;;
28802;SDS011;15949;55.656;37.422;2024-03-23T23:35:14;71.13;;;28.90;;
28802;SDS011;15949;55.656;37.422;2024-03-23T23:40:20;61.10;;;26.77;;
28802;SDS011;15949;55.656;37.422;2024-03-23T23:45:25;62.40;;;27.65;;
28802;SDS011;15949;55.656;37.422;2024-03-23T23:50:32;61.95;;;26.42;;
28802;SDS011;15949;55.656;37.422;2024-03-23T23:55:38;60.83;;;25.83;;
